sensor_id;sensor_type;location;lat;lon;timestamp;P1;durP1;ratioP1;P2;durP2;ratioP2
63621;SDS011;49770;47.544;19.074;2023-04-25T04:12:45;7.22;;;5.12;;
63621;SDS011;49770;47.544;19.074;2023-04-25T04:15:56;10.30;;;5.37;;
63621;SDS011;49770;47.544;19.074;2023-04-25T04:19:04;7.75;;;4.95;;
63621;SDS011;49770;47.544;19.074;2023-04-25T04:22:12;5.37;;;4.87;;
63621;SDS011;49770;47.544;19.074;2023-04-25T04:25:19;5.53;;;4.85;;
63621;SDS011;49770;47.544;19.074;2023-04-25T04:28:35;5.12;;;4.62;;
63621;SDS011;49770;47.544;19.074;2023-04-25T04:31:42;5.90;;;5.30;;
63621;SDS011;49770;47.544;19.074;2023-04-25T04:34:47;5.60;;;5.10;;
63621;SDS011;49770;47.544;19.074;2023-04-25T04:37:56;5.30;;;4.80;;
63621;SDS011;49770;47.544;19.074;2023-04-25T04:41:06;5.82;;;5.32;;
63621;SDS011;49770;47.544;19.074;2023-04-25T04:44:15;5.87;;;4.78;;
63621;SDS011;49770;47.544;19.074;2023-04-25T04:47:21;5.43;;;4.60;;
63621;SDS011;49770;47.544;19.074;2023-04-25T04:50:29;7.75;;;4.87;;
63621;SDS011;49770;47.544;19.074;2023-04-25T04:53:39;5.32;;;4.82;;
63621;SDS011;49770;47.544;19.074;2023-04-25T04:56:48;5.03;;;4.53;;
63621;SDS011;49770;47.544;19.074;2023-04-25T04:59:56;5.70;;;4.32;;
63621;SDS011;49770;47.544;19.074;2023-04-25T05:03:03;5.15;;;4.65;;
63621;SDS011;49770;47.544;19.074;2023-04-25T05:06:11;5.93;;;4.55;;
63621;SDS011;49770;47.544;19.074;2023-04-25T05:09:19;5.90;;;4.68;;
63621;SDS011;49770;47.544;19.074;2023-04-25T05:12:34;7.55;;;5.45;;
63621;SDS011;49770;47.544;19.074;2023-04-25T05:15:41;5.60;;;4.97;;
63621;SDS011;49770;47.544;19.074;2023-04-25T05:18:49;5.12;;;4.62;;
63621;SDS011;49770;47.544;19.074;2023-04-25T05:21:56;6.10;;;5.28;;
63621;SDS011;49770;47.544;19.074;2023-04-25T05:25:05;7.37;;;5.32;;
63621;SDS011;49770;47.544;19.074;2023-04-25T05:28:13;6.57;;;5.40;;
63621;SDS011;49770;47.544;19.074;2023-04-25T05:31:22;7.47;;;5.32;;
63621;SDS011;49770;47.544;19.074;2023-04-25T05:34:28;6.03;;;5.07;;
63621;SDS011;49770;47.544;19.074;2023-04-25T05:37:35;5.72;;;5.12;;
63621;SDS011;49770;47.544;19.074;2023-04-25T05:40:44;5.82;;;5.22;;
63621;SDS011;49770;47.544;19.074;2023-04-25T05:43:55;6.15;;;5.28;;
63621;SDS011;49770;47.544;19.074;2023-04-25T05:47:04;6.25;;;5.55;;
63621;SDS011;49770;47.544;19.074;2023-04-25T05:50:16;10.18;;;6.05;;
63621;SDS011;49770;47.544;19.074;2023-04-25T06:31:29;11.52;;;8.80;;
63621;SDS011;49770;47.544;19.074;2023-04-25T06:34:38;11.88;;;7.70;;
63621;SDS011;49770;47.544;19.074;2023-04-25T06:37:43;9.65;;;7.25;;
63621;SDS011;49770;47.544;19.074;2023-04-25T06:40:46;10.77;;;7.53;;
63621;SDS011;49770;47.544;19.074;2023-04-25T06:43:51;9.98;;;7.95;;
63621;SDS011;49770;47.544;19.074;2023-04-25T06:46:59;9.00;;;7.37;;
63621;SDS011;49770;47.544;19.074;2023-04-25T06:50:04;9.02;;;7.30;;
63621;SDS011;49770;47.544;19.074;2023-04-25T06:53:10;9.55;;;7.32;;
63621;SDS011;49770;47.544;19.074;2023-04-25T06:56:15;8.02;;;7.22;;
63621;SDS011;49770;47.544;19.074;2023-04-25T06:59:20;8.77;;;7.30;;
63621;SDS011;49770;47.544;19.074;2023-04-25T07:02:25;10.25;;;6.95;;
63621;SDS011;49770;47.544;19.074;2023-04-25T07:05:29;10.75;;;7.10;;
63621;SDS011;49770;47.544;19.074;2023-04-25T07:08:37;7.43;;;6.72;;
63621;SDS011;49770;47.544;19.074;2023-04-25T07:11:43;7.50;;;6.70;;
63621;SDS011;49770;47.544;19.074;2023-04-25T07:14:49;8.80;;;7.28;;
63621;SDS011;49770;47.544;19.074;2023-04-25T07:17:53;8.52;;;6.87;;
63621;SDS011;49770;47.544;19.074;2023-04-25T07:20:57;7.45;;;6.62;;
63621;SDS011;49770;47.544;19.074;2023-04-25T07:24:03;7.72;;;6.47;;
63621;SDS011;49770;47.544;19.074;2023-04-25T07:27:08;7.18;;;6.45;;
63621;SDS011;49770;47.544;19.074;2023-04-25T07:30:14;8.57;;;6.32;;
63621;SDS011;49770;47.544;19.074;2023-04-25T07:33:19;15.13;;;5.75;;
63621;SDS011;49770;47.544;19.074;2023-04-25T07:36:24;8.80;;;6.22;;
63621;SDS011;49770;47.544;19.074;2023-04-25T07:39:30;7.15;;;5.68;;
63621;SDS011;49770;47.544;19.074;2023-04-25T07:42:38;5.60;;;4.95;;
63621;SDS011;49770;47.544;19.074;2023-04-25T07:45:44;8.98;;;5.70;;
63621;SDS011;49770;47.544;19.074;2023-04-25T07:48:50;6.57;;;5.65;;
63621;SDS011;49770;47.544;19.074;2023-04-25T07:51:57;10.70;;;6.55;;
63621;SDS011;49770;47.544;19.074;2023-04-25T07:55:01;6.95;;;5.82;;
63621;SDS011;49770;47.544;19.074;2023-04-25T07:58:07;9.15;;;4.93;;
63621;SDS011;49770;47.544;19.074;2023-04-25T08:01:12;5.32;;;4.82;;
63621;SDS011;49770;47.544;19.074;2023-04-25T08:04:18;10.98;;;4.70;;
63621;SDS011;49770;47.544;19.074;2023-04-25T08:07:24;5.37;;;4.40;;
63621;SDS011;49770;47.544;19.074;2023-04-25T08:10:30;5.53;;;4.62;;
63621;SDS011;49770;47.544;19.074;2023-04-25T08:13:33;9.57;;;4.75;;
63621;SDS011;49770;47.544;19.074;2023-04-25T08:16:35;9.10;;;4.03;;
63621;SDS011;49770;47.544;19.074;2023-04-25T08:19:39;6.40;;;4.18;;
63621;SDS011;49770;47.544;19.074;2023-04-25T08:22:44;5.55;;;4.30;;
63621;SDS011;49770;47.544;19.074;2023-04-25T08:25:52;5.25;;;3.53;;
63621;SDS011;49770;47.544;19.074;2023-04-25T08:28:56;3.62;;;3.33;;
63621;SDS011;49770;47.544;19.074;2023-04-25T08:32:00;4.28;;;3.50;;
63621;SDS011;49770;47.544;19.074;2023-04-25T08:35:04;4.20;;;3.50;;
63621;SDS011;49770;47.544;19.074;2023-04-25T08:38:08;5.35;;;3.55;;
63621;SDS011;49770;47.544;19.074;2023-04-25T08:41:14;3.72;;;3.15;;
63621;SDS011;49770;47.544;19.074;2023-04-25T08:44:18;4.30;;;3.33;;
63621;SDS011;49770;47.544;19.074;2023-04-25T08:47:27;3.80;;;3.37;;
63621;SDS011;49770;47.544;19.074;2023-04-25T08:50:34;5.20;;;3.22;;
63621;SDS011;49770;47.544;19.074;2023-04-25T08:53:40;6.82;;;3.40;;
63621;SDS011;49770;47.544;19.074;2023-04-25T08:56:48;4.70;;;4.12;;
63621;SDS011;49770;47.544;19.074;2023-04-25T08:59:52;6.07;;;3.95;;
63621;SDS011;49770;47.544;19.074;2023-04-25T09:02:56;6.57;;;4.50;;
63621;SDS011;49770;47.544;19.074;2023-04-25T09:06:05;4.80;;;4.40;;
63621;SDS011;49770;47.544;19.074;2023-04-25T09:09:10;8.32;;;4.22;;
63621;SDS011;49770;47.544;19.074;2023-04-25T09:12:17;5.82;;;3.80;;
63621;SDS011;49770;47.544;19.074;2023-04-25T09:15:24;5.72;;;3.53;;
63621;SDS011;49770;47.544;19.074;2023-04-25T09:18:31;6.90;;;3.92;;
63621;SDS011;49770;47.544;19.074;2023-04-25T09:21:38;4.60;;;3.90;;
63621;SDS011;49770;47.544;19.074;2023-04-25T09:24:43;4.90;;;4.50;;
63621;SDS011;49770;47.544;19.074;2023-04-25T09:28:06;4.55;;;4.05;;
63621;SDS011;49770;47.544;19.074;2023-04-25T09:31:20;6.03;;;3.80;;
63621;SDS011;49770;47.544;19.074;2023-04-25T09:34:26;3.70;;;3.37;;
63621;SDS011;49770;47.544;19.074;2023-04-25T09:37:33;3.70;;;3.40;;
63621;SDS011;49770;47.544;19.074;2023-04-25T09:40:45;3.95;;;3.55;;
63621;SDS011;49770;47.544;19.074;2023-04-25T09:43:56;3.28;;;2.97;;
63621;SDS011;49770;47.544;19.074;2023-04-25T09:47:04;3.10;;;2.80;;
63621;SDS011;49770;47.544;19.074;2023-04-25T09:50:19;4.10;;;3.00;;
63621;SDS011;49770;47.544;19.074;2023-04-25T09:53:25;9.43;;;3.10;;
63621;SDS011;49770;47.544;19.074;2023-04-25T09:56:35;4.25;;;2.70;;
63621;SDS011;49770;47.544;19.074;2023-04-25T10:02:54;2.58;;;2.40;;
63621;SDS011;49770;47.544;19.074;2023-04-25T10:06:06;2.17;;;1.98;;
63621;SDS011;49770;47.544;19.074;2023-04-25T10:09:12;3.78;;;2.30;;
63621;SDS011;49770;47.544;19.074;2023-04-25T10:12:17;2.80;;;2.30;;
63621;SDS011;49770;47.544;19.074;2023-04-25T10:15:22;2.22;;;2.00;;
63621;SDS011;49770;47.544;19.074;2023-04-25T10:18:27;2.95;;;2.17;;
63621;SDS011;49770;47.544;19.074;2023-04-25T10:21:31;2.65;;;2.40;;
63621;SDS011;49770;47.544;19.074;2023-04-25T10:24:36;3.28;;;2.00;;
63621;SDS011;49770;47.544;19.074;2023-04-25T10:27:40;3.15;;;2.28;;
63621;SDS011;49770;47.544;19.074;2023-04-25T10:34:03;1.60;;;1.50;;
63621;SDS011;49770;47.544;19.074;2023-04-25T10:37:09;1.70;;;1.60;;
63621;SDS011;49770;47.544;19.074;2023-04-25T10:40:15;2.47;;;1.80;;
63621;SDS011;49770;47.544;19.074;2023-04-25T10:46:34;4.18;;;1.80;;
63621;SDS011;49770;47.544;19.074;2023-04-25T10:49:42;2.45;;;1.90;;
63621;SDS011;49770;47.544;19.074;2023-04-25T10:52:46;1.60;;;1.50;;
63621;SDS011;49770;47.544;19.074;2023-04-25T10:55:50;1.48;;;1.37;;
63621;SDS011;49770;47.544;19.074;2023-04-25T11:02:13;0.90;;;0.90;;
63621;SDS011;49770;47.544;19.074;2023-04-25T11:05:28;0.62;;;0.62;;
63621;SDS011;49770;47.544;19.074;2023-04-25T11:08:45;1.02;;;0.93;;
63621;SDS011;49770;47.544;19.074;2023-04-25T11:11:54;0.80;;;0.80;;
63621;SDS011;49770;47.544;19.074;2023-04-25T11:15:02;0.60;;;0.60;;
63621;SDS011;49770;47.544;19.074;2023-04-25T11:18:07;0.68;;;0.60;;
63621;SDS011;49770;47.544;19.074;2023-04-25T11:21:13;0.82;;;0.70;;
63621;SDS011;49770;47.544;19.074;2023-04-25T11:24:17;1.17;;;0.70;;
63621;SDS011;49770;47.544;19.074;2023-04-25T11:27:20;1.77;;;1.50;;
63621;SDS011;49770;47.544;19.074;2023-04-25T11:30:26;1.42;;;1.10;;
63621;SDS011;49770;47.544;19.074;2023-04-25T11:33:32;1.87;;;1.60;;
63621;SDS011;49770;47.544;19.074;2023-04-25T11:36:36;1.92;;;1.30;;
63621;SDS011;49770;47.544;19.074;2023-04-25T11:39:42;1.67;;;1.27;;
63621;SDS011;49770;47.544;19.074;2023-04-25T11:42:49;1.85;;;1.20;;
63621;SDS011;49770;47.544;19.074;2023-04-25T11:45:58;1.00;;;0.90;;
63621;SDS011;49770;47.544;19.074;2023-04-25T11:49:02;0.70;;;0.68;;
63621;SDS011;49770;47.544;19.074;2023-04-25T11:52:08;0.88;;;0.80;;
63621;SDS011;49770;47.544;19.074;2023-04-25T11:55:14;1.33;;;0.88;;
63621;SDS011;49770;47.544;19.074;2023-04-25T11:58:19;1.05;;;0.82;;
63621;SDS011;49770;47.544;19.074;2023-04-25T12:01:30;0.70;;;0.70;;
63621;SDS011;49770;47.544;19.074;2023-04-25T12:04:40;1.65;;;0.80;;
63621;SDS011;49770;47.544;19.074;2023-04-25T12:11:22;1.42;;;0.80;;
63621;SDS011;49770;47.544;19.074;2023-04-25T12:14:27;0.98;;;0.98;;
63621;SDS011;49770;47.544;19.074;2023-04-25T12:17:33;0.98;;;0.98;;
63621;SDS011;49770;47.544;19.074;2023-04-25T12:20:39;2.42;;;1.20;;
63621;SDS011;49770;47.544;19.074;2023-04-25T12:23:47;1.10;;;1.10;;
63621;SDS011;49770;47.544;19.074;2023-04-25T12:26:58;1.20;;;1.10;;
63621;SDS011;49770;47.544;19.074;2023-04-25T12:30:05;1.90;;;1.02;;
63621;SDS011;49770;47.544;19.074;2023-04-25T12:33:13;1.75;;;1.10;;
63621;SDS011;49770;47.544;19.074;2023-04-25T12:36:17;3.20;;;1.00;;
63621;SDS011;49770;47.544;19.074;2023-04-25T12:39:21;1.10;;;1.10;;
63621;SDS011;49770;47.544;19.074;2023-04-25T12:42:26;2.47;;;1.12;;
63621;SDS011;49770;47.544;19.074;2023-04-25T12:45:29;0.93;;;0.93;;
63621;SDS011;49770;47.544;19.074;2023-04-25T12:48:33;2.03;;;1.30;;
63621;SDS011;49770;47.544;19.074;2023-04-25T12:51:36;1.15;;;1.10;;
63621;SDS011;49770;47.544;19.074;2023-04-25T12:54:41;0.93;;;0.93;;
63621;SDS011;49770;47.544;19.074;2023-04-25T12:57:46;2.37;;;1.02;;
63621;SDS011;49770;47.544;19.074;2023-04-25T13:00:49;1.30;;;1.20;;
63621;SDS011;49770;47.544;19.074;2023-04-25T13:03:54;1.40;;;1.30;;
63621;SDS011;49770;47.544;19.074;2023-04-25T13:06:58;1.20;;;1.20;;
63621;SDS011;49770;47.544;19.074;2023-04-25T13:10:05;2.75;;;1.42;;
63621;SDS011;49770;47.544;19.074;2023-04-25T13:13:11;1.25;;;1.20;;
63621;SDS011;49770;47.544;19.074;2023-04-25T13:16:20;1.60;;;1.50;;
63621;SDS011;49770;47.544;19.074;2023-04-25T13:19:26;2.37;;;1.55;;
63621;SDS011;49770;47.544;19.074;2023-04-25T13:22:31;1.55;;;1.45;;
63621;SDS011;49770;47.544;19.074;2023-04-25T13:25:37;1.60;;;1.37;;
63621;SDS011;49770;47.544;19.074;2023-04-25T13:28:42;2.22;;;1.40;;
63621;SDS011;49770;47.544;19.074;2023-04-25T13:31:48;2.45;;;1.60;;
63621;SDS011;49770;47.544;19.074;2023-04-25T13:34:53;3.45;;;1.70;;
63621;SDS011;49770;47.544;19.074;2023-04-25T13:37:57;2.45;;;1.60;;
63621;SDS011;49770;47.544;19.074;2023-04-25T13:41:02;1.87;;;1.30;;
63621;SDS011;49770;47.544;19.074;2023-04-25T13:44:07;2.35;;;1.52;;
63621;SDS011;49770;47.544;19.074;2023-04-25T13:47:11;1.83;;;1.62;;
63621;SDS011;49770;47.544;19.074;2023-04-25T13:50:15;2.12;;;1.40;;
63621;SDS011;49770;47.544;19.074;2023-04-25T13:53:22;1.50;;;1.40;;
63621;SDS011;49770;47.544;19.074;2023-04-25T13:56:29;3.20;;;1.50;;
63621;SDS011;49770;47.544;19.074;2023-04-25T13:59:35;1.75;;;1.60;;
63621;SDS011;49770;47.544;19.074;2023-04-25T14:02:43;2.37;;;1.92;;
63621;SDS011;49770;47.544;19.074;2023-04-25T14:05:55;1.60;;;1.48;;
63621;SDS011;49770;47.544;19.074;2023-04-25T14:09:03;1.52;;;1.42;;
63621;SDS011;49770;47.544;19.074;2023-04-25T14:12:13;1.52;;;1.42;;
63621;SDS011;49770;47.544;19.074;2023-04-25T14:15:22;2.45;;;1.83;;
63621;SDS011;49770;47.544;19.074;2023-04-25T14:18:31;7.62;;;1.60;;
63621;SDS011;49770;47.544;19.074;2023-04-25T14:21:39;2.00;;;1.55;;
63621;SDS011;49770;47.544;19.074;2023-04-25T14:24:46;1.70;;;1.60;;
63621;SDS011;49770;47.544;19.074;2023-04-25T14:27:52;3.10;;;1.70;;
63621;SDS011;49770;47.544;19.074;2023-04-25T14:30:59;3.67;;;1.77;;
63621;SDS011;49770;47.544;19.074;2023-04-25T14:34:06;1.60;;;1.50;;
63621;SDS011;49770;47.544;19.074;2023-04-25T14:37:13;1.70;;;1.60;;
63621;SDS011;49770;47.544;19.074;2023-04-25T14:40:20;2.92;;;1.80;;
63621;SDS011;49770;47.544;19.074;2023-04-25T14:43:30;3.60;;;1.60;;
63621;SDS011;49770;47.544;19.074;2023-04-25T14:46:37;1.70;;;1.50;;
63621;SDS011;49770;47.544;19.074;2023-04-25T14:49:45;1.73;;;1.62;;
63621;SDS011;49770;47.544;19.074;2023-04-25T14:52:59;2.20;;;2.00;;
63621;SDS011;49770;47.544;19.074;2023-04-25T14:56:06;2.17;;;1.67;;
63621;SDS011;49770;47.544;19.074;2023-04-25T14:59:13;2.55;;;1.70;;
63621;SDS011;49770;47.544;19.074;2023-04-25T15:02:20;1.55;;;1.37;;
63621;SDS011;49770;47.544;19.074;2023-04-25T15:05:25;1.52;;;1.42;;
63621;SDS011;49770;47.544;19.074;2023-04-25T15:08:32;2.10;;;1.90;;
63621;SDS011;49770;47.544;19.074;2023-04-25T15:11:38;1.85;;;1.70;;
63621;SDS011;49770;47.544;19.074;2023-04-25T15:14:43;2.15;;;2.00;;
63621;SDS011;49770;47.544;19.074;2023-04-25T15:17:48;2.53;;;1.85;;
63621;SDS011;49770;47.544;19.074;2023-04-25T15:21:01;1.80;;;1.70;;
63621;SDS011;49770;47.544;19.074;2023-04-25T15:24:09;1.95;;;1.85;;
63621;SDS011;49770;47.544;19.074;2023-04-25T15:27:18;1.98;;;1.77;;
63621;SDS011;49770;47.544;19.074;2023-04-25T15:30:28;2.03;;;1.85;;
63621;SDS011;49770;47.544;19.074;2023-04-25T15:33:36;2.30;;;2.00;;
63621;SDS011;49770;47.544;19.074;2023-04-25T15:36:43;2.45;;;2.03;;
63621;SDS011;49770;47.544;19.074;2023-04-25T15:40:00;2.40;;;2.20;;
